createdAt,value
2016-07-16T00:00:22.794Z,76.35
2016-07-16T00:01:22.067Z,76.25
2016-07-16T00:02:22.783Z,76.16
2016-07-16T00:03:36.951Z,76.54
2016-07-16T00:04:22.344Z,76.92
2016-07-16T00:05:23.651Z,76.45
2016-07-16T00:06:23.002Z,76.54
2016-07-16T00:07:22.170Z,76.45
2016-07-16T00:08:23.021Z,76.45
2016-07-16T00:09:23.028Z,76.25
2016-07-16T00:10:22.171Z,76.16
2016-07-16T00:11:22.095Z,76.82
2016-07-16T00:12:22.311Z,76.25
2016-07-16T00:13:22.114Z,77.01
2016-07-16T00:14:22.142Z,76.45
2016-07-16T00:15:22.149Z,77.01
2016-07-16T00:16:22.119Z,76.82
2016-07-16T00:17:22.136Z,77.01
2016-07-16T00:18:22.858Z,76.73
2016-07-16T00:19:22.861Z,76.64
2016-07-16T00:20:22.870Z,77.21
2016-07-16T00:21:22.880Z,77.21
2016-07-16T00:22:22.156Z,77.21
2016-07-16T00:23:22.143Z,77.21
2016-07-16T00:24:22.146Z,77.21
2016-07-16T00:25:22.888Z,77.11
2016-07-16T00:26:22.406Z,77.17
2016-07-16T00:27:22.897Z,77.45
2016-07-16T00:28:22.181Z,77.55
2016-07-16T00:29:22.203Z,77.45
2016-07-16T00:30:22.379Z,77.78
2016-07-16T00:32:22.203Z,77.65
2016-07-16T00:33:22.192Z,77.65
2016-07-16T00:34:22.926Z,77.65
2016-07-16T00:35:22.204Z,77.55
2016-07-16T00:36:22.222Z,77.65
2016-07-16T00:37:22.938Z,77.55
2016-07-16T00:38:22.215Z,77.65
2016-07-16T00:39:22.237Z,77.65
2016-07-16T00:40:23.242Z,77.74
2016-07-16T00:41:22.221Z,77.26
2016-07-16T00:42:22.283Z,77.26
2016-07-16T00:43:22.243Z,77.55
2016-07-16T00:44:22.323Z,77.65
2016-07-16T00:45:22.997Z,77.45
2016-07-16T00:46:22.238Z,77.74
2016-07-16T00:47:22.250Z,77.08
2016-07-16T00:48:22.247Z,77.17
2016-07-16T00:49:22.252Z,77.17
2016-07-16T00:50:22.289Z,77.17
2016-07-16T00:51:22.986Z,77.26
2016-07-16T00:52:22.270Z,77.26
2016-07-16T00:53:22.269Z,77.17
2016-07-16T00:54:23.028Z,77.11
2016-07-16T00:55:22.290Z,77.26
2016-07-16T00:56:22.296Z,77.26
2016-07-16T00:57:23.016Z,77.26
2016-07-16T00:58:23.238Z,76.79
2016-07-16T00:59:22.293Z,77.17
2016-07-16T01:00:23.258Z,77.4
2016-07-16T01:01:22.331Z,77.08
2016-07-16T01:02:22.318Z,77.11
2016-07-16T01:03:22.314Z,76.79
2016-07-16T01:04:22.315Z,76.82
2016-07-16T01:05:23.059Z,76.98
2016-07-16T01:06:22.330Z,76.98
2016-07-16T01:07:22.333Z,76.92
2016-07-16T01:08:23.075Z,76.73
2016-07-16T01:09:23.309Z,76.64
2016-07-16T01:10:22.364Z,76.69
2016-07-16T01:11:22.346Z,77.01
2016-07-16T01:12:22.355Z,76.25
2016-07-16T01:13:22.360Z,76.5
2016-07-16T01:14:22.478Z,76.4
2016-07-16T01:15:22.388Z,76.88
2016-07-16T01:16:22.369Z,76.21
2016-07-16T01:17:22.448Z,76.79
2016-07-16T01:18:22.374Z,76.88
2016-07-16T01:19:22.377Z,76.4
2016-07-16T01:20:22.388Z,76.88
2016-07-16T01:21:23.140Z,76.12
2016-07-16T01:22:22.387Z,76.88
2016-07-16T01:23:23.123Z,76.69
2016-07-16T01:24:23.143Z,76.69
2016-07-16T01:25:23.145Z,76.79
2016-07-16T01:26:22.407Z,76.31
2016-07-16T01:27:22.476Z,76.69
2016-07-16T01:28:22.414Z,76.88
2016-07-16T01:29:22.434Z,76.4
2016-07-16T01:30:22.485Z,76.4
2016-07-16T01:31:22.432Z,76.12
2016-07-16T01:32:22.435Z,76.5
2016-07-16T01:33:22.441Z,76.4
2016-07-16T01:34:23.170Z,76.6
2016-07-16T01:35:22.642Z,76.4
2016-07-16T01:36:37.309Z,76.5
2016-07-16T01:37:37.319Z,76.21
2016-07-16T01:38:22.455Z,76.21
2016-07-16T01:39:22.465Z,76.21
2016-07-16T01:41:23.192Z,76.4
2016-07-16T01:42:22.475Z,76.21
2016-07-16T01:43:22.480Z,76.21
2016-07-16T01:44:22.551Z,76.6
2016-07-16T01:45:22.499Z,76.4
2016-07-16T01:46:22.510Z,76.21
2016-07-16T01:47:22.490Z,76.31
2016-07-16T01:48:22.698Z,76.31
2016-07-16T01:49:22.732Z,76.21
2016-07-16T01:50:22.500Z,76.12
2016-07-16T01:51:22.519Z,76.4
2016-07-16T01:52:22.510Z,76.4
2016-07-16T01:53:22.560Z,76.4
2016-07-16T01:54:22.520Z,76.4
2016-07-16T01:55:22.602Z,76.31
2016-07-16T01:56:22.531Z,76.21
2016-07-16T01:57:23.258Z,76.31
2016-07-16T01:59:23.266Z,76.31
2016-07-16T02:00:23.272Z,76.21
2016-07-16T02:01:22.549Z,76.6
2016-07-16T02:02:22.548Z,76.21
2016-07-16T02:03:22.553Z,76.31
2016-07-16T02:04:23.326Z,76.5
2016-07-16T02:05:23.323Z,76.31
2016-07-16T02:06:23.296Z,76.4
2016-07-16T02:07:22.574Z,76.4
2016-07-16T02:08:22.580Z,76.88
2016-07-16T02:09:22.584Z,76.98
2016-07-16T02:10:22.587Z,76.98
2016-07-16T02:11:22.596Z,76.6
2016-07-16T02:13:22.590Z,77.13
2016-07-16T02:14:23.549Z,76.65
2016-07-16T02:15:22.597Z,77.13
2016-07-16T02:16:23.329Z,77.03
2016-07-16T02:17:22.819Z,77.23
2016-07-16T02:18:22.631Z,77.03
2016-07-16T02:19:22.632Z,76.94
2016-07-16T02:20:22.813Z,77.13
2016-07-16T02:21:22.819Z,77.03
2016-07-16T02:22:22.630Z,77.13
2016-07-16T02:23:22.628Z,77.32
2016-07-16T02:24:22.626Z,77.51
2016-07-16T02:25:22.633Z,77.51
2016-07-16T02:26:22.638Z,77.61
2016-07-16T02:27:23.575Z,77.7
2016-07-16T02:28:23.759Z,77.61
2016-07-16T02:29:23.386Z,77.51
2016-07-16T02:30:22.939Z,77.61
2016-07-16T02:31:37.534Z,77.61
2016-07-16T02:32:23.386Z,77.51
2016-07-16T02:33:23.601Z,77.61
2016-07-16T02:34:22.876Z,77.51
2016-07-16T02:35:23.406Z,77.51
2016-07-16T02:36:22.694Z,77.61
2016-07-16T02:37:23.412Z,77.7
2016-07-16T02:38:23.460Z,77.7
2016-07-16T02:39:22.679Z,77.7
2016-07-16T02:40:22.693Z,77.7
2016-07-16T02:41:22.700Z,77.51
2016-07-16T02:42:22.920Z,77.7
2016-07-16T02:43:22.713Z,77.61
2016-07-16T02:44:22.748Z,77.42
2016-07-16T02:45:22.707Z,77.61
2016-07-16T02:46:23.433Z,77.61
2016-07-16T02:47:22.707Z,77.32
2016-07-16T02:49:22.710Z,78.18
2016-07-16T02:50:23.014Z,78.09
2016-07-16T02:51:23.446Z,77.8
2016-07-16T02:52:22.722Z,77.99
2016-07-16T02:53:22.728Z,78.18
2016-07-16T02:54:23.146Z,77.99
2016-07-16T02:55:22.739Z,77.89
2016-07-16T02:56:23.466Z,78.09
2016-07-16T02:57:22.754Z,77.99
2016-07-16T02:58:22.751Z,77.67
2016-07-16T02:59:22.759Z,78.18
2016-07-16T03:00:22.752Z,77.76
2016-07-16T03:01:23.695Z,77.67
2016-07-16T03:02:22.756Z,77.67
2016-07-16T03:03:23.497Z,77.76
2016-07-16T03:05:22.822Z,78.23
2016-07-16T03:06:22.811Z,78.05
2016-07-16T03:07:22.773Z,78.62
2016-07-16T03:08:22.982Z,78.14
2016-07-16T03:09:22.785Z,78.23
2016-07-16T03:10:22.791Z,78.23
2016-07-16T03:11:22.799Z,78.52
2016-07-16T03:12:23.012Z,78.23
2016-07-16T03:13:22.790Z,78.81
2016-07-16T03:14:22.799Z,78.52
2016-07-16T03:15:22.801Z,78.33
2016-07-16T03:16:22.806Z,78.43
2016-07-16T03:17:23.562Z,79
2016-07-16T03:18:22.804Z,78.81
2016-07-16T03:19:22.811Z,78.81
2016-07-16T03:20:22.808Z,79.1
2016-07-16T03:21:22.827Z,79.19
2016-07-16T03:22:23.554Z,79.48
2016-07-16T03:23:23.559Z,79.19
2016-07-16T03:25:23.064Z,79.38
2016-07-16T03:27:22.838Z,79.19
2016-07-16T03:28:22.843Z,79.1
2016-07-16T03:29:23.611Z,79.19
2016-07-16T03:30:23.574Z,79.19
2016-07-16T03:31:23.786Z,79.19
2016-07-16T03:32:23.593Z,79.28
2016-07-16T03:33:22.860Z,79.19
2016-07-16T03:34:22.855Z,79.28
2016-07-16T03:35:22.901Z,79.28
2016-07-16T03:36:22.867Z,79.28
2016-07-16T03:37:22.874Z,79.38
2016-07-16T03:38:22.884Z,78.81
2016-07-16T03:39:23.616Z,79.19
2016-07-16T03:40:22.884Z,78.81
2016-07-16T03:41:22.880Z,79
2016-07-16T03:42:22.877Z,79
2016-07-16T03:43:22.890Z,78.43
2016-07-16T03:44:23.685Z,78.81
2016-07-16T03:45:23.649Z,78.62
2016-07-16T03:46:23.649Z,78.81
2016-07-16T03:47:22.928Z,78.43
2016-07-16T03:48:22.904Z,78.33
2016-07-16T03:49:22.910Z,78.33
2016-07-16T03:50:22.909Z,78.23
2016-07-16T03:51:22.911Z,78.33
2016-07-16T03:53:23.343Z,78.43
2016-07-16T03:54:22.925Z,78.47
2016-07-16T03:55:22.927Z,78.47
2016-07-16T03:56:23.657Z,78.75
2016-07-16T03:57:22.957Z,78.85
2016-07-16T03:58:23.663Z,78.66
2016-07-16T03:59:23.663Z,78.85
2016-07-16T04:00:23.674Z,78.56
2016-07-16T04:01:23.883Z,78.47
2016-07-16T04:02:23.147Z,78.47
2016-07-16T04:03:23.242Z,77.99
2016-07-16T04:04:37.825Z,78.09
2016-07-16T04:05:23.018Z,78.28
2016-07-16T04:06:22.974Z,77.7
2016-07-16T04:07:22.979Z,78.13
2016-07-16T04:08:23.097Z,78.56
2016-07-16T04:09:23.034Z,78.37
2016-07-16T04:10:23.136Z,78.41
2016-07-16T04:11:23.012Z,78.31
2016-07-16T04:12:23.007Z,78.31
2016-07-16T04:13:23.022Z,78.6
2016-07-16T04:14:23.017Z,78.31
2016-07-16T04:15:23.003Z,78.22
2016-07-16T04:16:23.938Z,78.79
2016-07-16T04:17:23.287Z,78.89
2016-07-16T04:18:23.759Z,79.08
2016-07-16T04:19:23.243Z,79.08
2016-07-16T04:20:24.003Z,79.08
2016-07-16T04:21:23.772Z,78.6
2016-07-16T04:22:23.038Z,78.89
2016-07-16T04:23:23.030Z,78.51
2016-07-16T04:25:23.049Z,78.6
2016-07-16T04:26:23.046Z,78.41
2016-07-16T04:27:23.054Z,78.6
2016-07-16T04:28:23.269Z,78.41
2016-07-16T04:29:23.792Z,78.6
2016-07-16T04:30:23.805Z,78.31
2016-07-16T04:31:23.092Z,78.7
2016-07-16T04:32:23.811Z,78.31
2016-07-16T04:33:23.817Z,78.79
2016-07-16T04:34:23.290Z,78.51
2016-07-16T04:35:23.842Z,78.51
2016-07-16T04:36:23.844Z,78.31
2016-07-16T04:37:23.820Z,78.6
2016-07-16T04:38:23.094Z,78.51
2016-07-16T04:39:23.860Z,78.22
2016-07-16T04:40:23.355Z,78.13
2016-07-16T04:41:23.322Z,78.51
2016-07-16T04:42:23.154Z,78.31
2016-07-16T04:43:23.121Z,78.51
2016-07-16T04:44:23.182Z,78.31
2016-07-16T04:45:23.125Z,78.31
2016-07-16T04:46:23.339Z,78.22
2016-07-16T04:47:23.151Z,78.03
2016-07-16T04:48:23.170Z,78.79
2016-07-16T04:49:23.198Z,78.7
2016-07-16T04:50:23.156Z,78.83
2016-07-16T04:51:23.168Z,78.31
2016-07-16T04:52:23.299Z,78.83
2016-07-16T04:53:23.182Z,78.6
2016-07-16T04:54:23.903Z,78.93
2016-07-16T04:55:23.935Z,79.02
2016-07-16T04:56:23.950Z,78.93
2016-07-16T04:57:23.485Z,78.83
2016-07-16T04:58:23.206Z,79.69
2016-07-16T04:59:23.195Z,79.6
2016-07-16T05:00:23.206Z,79.41
2016-07-16T05:01:23.259Z,79.5
2016-07-16T05:02:23.965Z,79.69
2016-07-16T05:03:23.972Z,79.22
2016-07-16T05:04:23.964Z,78.74
2016-07-16T05:06:23.232Z,78.26
2016-07-16T05:07:24.004Z,78.93
2016-07-16T05:08:23.287Z,78.93
2016-07-16T05:09:23.252Z,78.74
2016-07-16T05:10:23.297Z,79.31
2016-07-16T05:11:23.488Z,79.12
2016-07-16T05:12:23.260Z,78.93
2016-07-16T05:13:23.274Z,78.93
2016-07-16T05:14:23.281Z,78.97
2016-07-16T05:15:24.220Z,78.83
2016-07-16T05:16:24.227Z,78.68
2016-07-16T05:17:23.296Z,78.58
2016-07-16T05:19:23.586Z,78.87
2016-07-16T05:20:38.166Z,79.16
2016-07-16T05:21:23.324Z,78.58
2016-07-16T05:22:23.350Z,78.68
2016-07-16T05:23:23.312Z,78.87
2016-07-16T05:24:23.337Z,78.87
2016-07-16T05:25:23.324Z,78.87
2016-07-16T05:26:23.342Z,78.68
2016-07-16T05:27:23.338Z,78.49
2016-07-16T05:28:24.276Z,78.78
2016-07-16T05:29:23.353Z,78.11
2016-07-16T05:30:24.091Z,78.2
2016-07-16T05:31:24.084Z,78.11
2016-07-16T05:32:23.577Z,78.39
2016-07-16T05:33:24.098Z,78.49
2016-07-16T05:34:24.123Z,78.39
2016-07-16T05:35:24.125Z,78.3
2016-07-16T05:36:23.580Z,78.01
2016-07-16T05:38:24.134Z,77.57
2016-07-16T05:39:24.166Z,78.24
2016-07-16T05:40:23.616Z,77.48
2016-07-16T05:42:23.434Z,77.67
2016-07-16T05:43:24.373Z,78.24
2016-07-16T05:44:23.431Z,78.24
2016-07-16T05:45:23.432Z,77.57
2016-07-16T05:46:24.167Z,78.14
2016-07-16T05:47:24.603Z,78.05
2016-07-16T05:49:38.853Z,77.86
2016-07-16T05:50:23.494Z,77.67
2016-07-16T05:51:24.228Z,77.86
2016-07-16T05:52:23.478Z,78.14
2016-07-16T05:53:23.481Z,78.14
2016-07-16T05:54:23.487Z,78.05
2016-07-16T05:55:23.511Z,77.86
2016-07-16T05:56:23.517Z,77.48
2016-07-16T05:57:23.527Z,77.28
2016-07-16T05:58:23.512Z,77.19
2016-07-16T05:59:23.527Z,77.23
2016-07-16T06:00:24.470Z,77.48
2016-07-16T06:01:23.553Z,78.34
2016-07-16T06:02:24.010Z,77.33
2016-07-16T06:03:23.544Z,77.61
2016-07-16T06:04:23.628Z,77.28
2016-07-16T06:05:23.563Z,77.04
2016-07-16T06:06:23.796Z,76.56
2016-07-16T06:07:23.557Z,76.65
2016-07-16T06:08:23.561Z,76.65
2016-07-16T06:09:23.567Z,75.89
2016-07-16T06:10:23.609Z,75.89
2016-07-16T06:11:23.579Z,75.26
2016-07-16T06:12:24.494Z,75.16
2016-07-16T06:13:23.594Z,74.97
2016-07-16T06:14:23.599Z,74.68
2016-07-16T06:15:24.367Z,74.3
2016-07-16T06:16:24.347Z,73.72
2016-07-16T06:17:23.639Z,73.95
2016-07-16T06:18:23.626Z,74.05
2016-07-16T06:20:23.640Z,74.15
2016-07-16T06:21:24.425Z,73.57
2016-07-16T06:22:23.690Z,73.95
2016-07-16T06:23:23.687Z,73.76
2016-07-16T06:24:23.665Z,73.57
2016-07-16T06:25:23.672Z,72.45
2016-07-16T06:26:24.655Z,72.36
2016-07-16T06:28:23.717Z,71.98
2016-07-16T06:29:23.705Z,72.36
2016-07-16T06:30:38.580Z,72.45
2016-07-16T06:31:24.199Z,71.69
2016-07-16T06:32:23.746Z,71.98
2016-07-16T06:33:23.753Z,71.4
2016-07-16T06:35:24.487Z,71.78
2016-07-16T06:36:23.770Z,71.59
2016-07-16T06:37:23.778Z,71.78
2016-07-16T06:38:23.784Z,71.69
2016-07-16T06:39:23.799Z,71.59
2016-07-16T06:40:23.803Z,71.78
2016-07-16T06:41:23.811Z,71.69
2016-07-16T06:42:23.816Z,70.92
2016-07-16T06:43:23.874Z,70.92
2016-07-16T06:44:23.878Z,71.63
2016-07-16T06:45:24.602Z,70.67
2016-07-16T06:46:23.841Z,71.82
2016-07-16T06:47:23.855Z,71.31
2016-07-16T06:48:39.127Z,71.25
2016-07-16T06:49:23.872Z,71.31
2016-07-16T06:50:23.877Z,71.53
2016-07-16T06:51:24.642Z,71.25
2016-07-16T06:53:24.639Z,71.05
2016-07-16T06:54:24.956Z,70.96
2016-07-16T06:55:24.643Z,71.44
2016-07-16T06:56:23.926Z,71.53
2016-07-16T06:57:23.975Z,71.78
2016-07-16T06:58:24.716Z,71.72
2016-07-16T06:59:23.953Z,72.01
2016-07-16T07:00:23.963Z,72.11
2016-07-16T07:01:25.100Z,71.63
2016-07-16T07:03:23.987Z,71.63
2016-07-16T07:04:24.005Z,72.2
2016-07-16T07:05:24.000Z,72.68
2016-07-16T07:06:24.045Z,71.63
2016-07-16T07:07:24.036Z,71.53
2016-07-16T07:08:24.045Z,71.34
2016-07-16T07:09:24.783Z,70.57
2016-07-16T07:10:39.108Z,71.19
2016-07-16T07:11:24.799Z,71.28
2016-07-16T07:12:24.269Z,71.09
2016-07-16T07:13:24.066Z,70.9
2016-07-16T07:14:24.818Z,70.23
2016-07-16T07:15:24.821Z,70.23
2016-07-16T07:16:24.824Z,69.68
2016-07-16T07:17:24.101Z,70.07
2016-07-16T07:18:24.126Z,69.78
2016-07-16T07:19:38.986Z,69.87
2016-07-16T07:20:24.137Z,69.3
2016-07-16T07:21:24.145Z,69.3
2016-07-16T07:22:24.924Z,69.05
2016-07-16T07:23:24.235Z,69.53
2016-07-16T07:24:24.197Z,68.18
2016-07-16T07:25:24.181Z,68.37
2016-07-16T07:26:24.648Z,68.18
2016-07-16T07:27:24.223Z,68.12
2016-07-16T07:28:24.206Z,67.64
2016-07-16T07:29:24.212Z,67.54
2016-07-16T07:30:24.224Z,67.25
2016-07-16T07:31:24.237Z,66.77
2016-07-16T07:32:24.256Z,66.77
2016-07-16T07:33:25.018Z,66.97
2016-07-16T07:34:24.992Z,66.87
2016-07-16T07:35:24.273Z,67.16
2016-07-16T07:36:24.285Z,66.49
2016-07-16T07:37:25.020Z,66.77
2016-07-16T07:38:25.266Z,66.77
2016-07-16T07:39:25.056Z,67.35
2016-07-16T07:40:25.064Z,67.16
2016-07-16T07:41:24.539Z,66.87
2016-07-16T07:42:25.297Z,66.68
2016-07-16T07:43:24.357Z,66.77
2016-07-16T07:44:24.358Z,67.35
2016-07-16T07:45:24.383Z,66.71
2016-07-16T07:46:39.247Z,66.33
2016-07-16T07:47:24.397Z,66.14
2016-07-16T07:48:25.382Z,65.46
2016-07-16T07:49:24.415Z,64.89
2016-07-16T07:50:25.156Z,65.75
2016-07-16T07:51:24.464Z,66.23
2016-07-16T07:52:24.446Z,65.56
2016-07-16T07:53:24.498Z,65.46
2016-07-16T07:54:25.215Z,65.66
2016-07-16T07:55:25.412Z,65.94
2016-07-16T07:56:25.211Z,65.75
2016-07-16T07:58:24.510Z,65.37
2016-07-16T07:59:24.719Z,64.98
2016-07-16T08:00:25.267Z,65.59
2016-07-16T08:01:25.494Z,65.08
2016-07-16T08:02:24.551Z,65.56
2016-07-16T08:03:25.504Z,65.08
2016-07-16T08:04:24.615Z,64.4
2016-07-16T08:05:24.595Z,64.63
2016-07-16T08:06:24.602Z,65.37
2016-07-16T08:07:24.879Z,64.12
2016-07-16T08:08:24.812Z,64.4
2016-07-16T08:09:25.369Z,64.5
2016-07-16T08:10:25.385Z,64.79
2016-07-16T08:11:25.389Z,64.92
2016-07-16T08:12:24.686Z,65.08
2016-07-16T08:13:24.803Z,65.5
2016-07-16T08:14:24.684Z,64.6
2016-07-16T08:15:24.682Z,64.31
2016-07-16T08:16:24.692Z,65.08
2016-07-16T08:17:25.430Z,65.37
2016-07-16T08:18:25.090Z,65.66
2016-07-16T08:19:24.723Z,65.46
2016-07-16T08:20:24.792Z,65.37
2016-07-16T08:21:24.758Z,63.73
2016-07-16T08:22:25.494Z,63.15
2016-07-16T08:23:24.971Z,64.22
2016-07-16T08:24:24.782Z,63.54
2016-07-16T08:25:25.709Z,64.12
2016-07-16T08:26:24.801Z,64.31
2016-07-16T08:27:24.803Z,64.12
2016-07-16T08:28:24.809Z,63.83
2016-07-16T08:29:25.568Z,64.6
2016-07-16T08:30:24.830Z,64.12
2016-07-16T08:31:24.842Z,64.69
2016-07-16T08:32:24.856Z,63.64
2016-07-16T08:33:24.866Z,63.92
2016-07-16T08:34:24.875Z,62.29
2016-07-16T08:35:24.936Z,62.77
2016-07-16T08:36:24.902Z,63.45
2016-07-16T08:37:24.921Z,63.15
2016-07-16T08:38:25.662Z,63.73
2016-07-16T08:39:25.654Z,63.73
2016-07-16T08:40:24.930Z,63.35
2016-07-16T08:41:25.689Z,64.22
2016-07-16T08:42:25.165Z,61.81
2016-07-16T08:43:24.983Z,62.41
2016-07-16T08:44:24.978Z,60.88
2016-07-16T08:45:24.984Z,61.94
2016-07-16T08:46:24.995Z,62.41
2016-07-16T08:47:25.014Z,62.23
2016-07-16T08:48:25.027Z,62.23
2016-07-16T08:49:25.030Z,62.8
2016-07-16T08:50:25.070Z,62.9
2016-07-16T08:51:25.043Z,62.51
2016-07-16T08:52:25.804Z,62.9
2016-07-16T08:53:25.554Z,61.94
2016-07-16T08:54:25.562Z,61.97
2016-07-16T08:55:25.086Z,62.16
2016-07-16T08:56:25.852Z,62.26
2016-07-16T08:57:26.065Z,62.16
2016-07-16T08:58:25.142Z,62.06
2016-07-16T08:59:25.126Z,59.75
2016-07-16T09:00:25.137Z,59.85
2016-07-16T09:01:26.092Z,60.81
2016-07-16T09:02:25.250Z,61.1
2016-07-16T09:03:25.171Z,60.91
2016-07-16T09:04:25.183Z,59.94
2016-07-16T09:05:25.190Z,60.72
2016-07-16T09:06:25.204Z,60.24
2016-07-16T09:07:25.941Z,59.08
2016-07-16T09:08:25.280Z,60.36
2016-07-16T09:09:25.970Z,60.55
2016-07-16T09:10:25.863Z,59.94
2016-07-16T09:11:25.257Z,60.36
2016-07-16T09:12:25.269Z,59.11
2016-07-16T09:13:25.478Z,59.97
2016-07-16T09:14:25.301Z,59.78
2016-07-16T09:15:25.300Z,59.78
2016-07-16T09:16:26.257Z,59.3
2016-07-16T09:17:25.532Z,60.17
2016-07-16T09:18:25.539Z,58.56
2016-07-16T09:19:25.352Z,58.17
2016-07-16T09:20:25.359Z,58.27
2016-07-16T09:21:40.234Z,58.37
2016-07-16T09:22:25.580Z,59.23
2016-07-16T09:23:26.119Z,58.37
2016-07-16T09:24:26.127Z,57.4
2016-07-16T09:25:25.425Z,56.35
2016-07-16T09:26:25.627Z,55.48
2016-07-16T09:27:26.173Z,56.05
2016-07-16T09:28:25.487Z,57.31
2016-07-16T09:29:25.458Z,56.63
2016-07-16T09:30:25.672Z,57.31
2016-07-16T09:31:25.475Z,57.79
2016-07-16T09:32:25.491Z,57.79
2016-07-16T09:33:27.478Z,57.89
2016-07-16T09:34:25.513Z,58.08
2016-07-16T09:35:25.521Z,56.73
2016-07-16T09:36:26.140Z,57.21
2016-07-16T09:37:25.563Z,57.89
2016-07-16T09:38:25.563Z,57.21
2016-07-16T09:39:25.986Z,57.31
2016-07-16T09:40:25.579Z,58.08
2016-07-16T09:41:25.896Z,56.15
2016-07-16T09:42:26.370Z,55.96
2016-07-16T09:43:25.656Z,56.35
2016-07-16T09:44:25.937Z,56.82
2016-07-16T09:45:25.635Z,56.15
2016-07-16T09:46:25.777Z,56.73
2016-07-16T09:48:40.538Z,55.96
2016-07-16T09:49:26.410Z,56.92
2016-07-16T09:50:26.644Z,56.82
2016-07-16T09:51:26.434Z,56.76
2016-07-16T09:52:26.445Z,54.42
2016-07-16T09:53:26.669Z,55.57
2016-07-16T09:54:26.468Z,55.48
2016-07-16T09:55:26.478Z,54.44
2016-07-16T09:56:26.105Z,55.7
2016-07-16T09:57:25.883Z,56.25
2016-07-16T09:58:26.256Z,56.05
2016-07-16T10:00:26.913Z,55.48
2016-07-16T10:01:25.987Z,55.96
2016-07-16T10:02:26.958Z,56.54
2016-07-16T10:03:40.924Z,56.92
2016-07-16T10:04:26.812Z,57.31
2016-07-16T10:05:25.857Z,57.5
2016-07-16T10:06:26.605Z,57.95
2016-07-16T10:07:26.632Z,56.63
2016-07-16T10:09:25.906Z,56.54
2016-07-16T10:10:27.085Z,56.82
2016-07-16T10:11:25.936Z,55.48
2016-07-16T10:12:26.729Z,54.13
2016-07-16T10:13:26.696Z,52.69
2016-07-16T10:14:25.990Z,51.14
2016-07-16T10:15:25.980Z,50.21
2016-07-16T10:16:25.999Z,49.43
2016-07-16T10:17:26.784Z,50.11
2016-07-16T10:18:26.422Z,50.98
2016-07-16T10:19:26.024Z,49.73
2016-07-16T10:20:26.038Z,50.78
2016-07-16T10:21:26.061Z,50.42
2016-07-16T10:22:26.056Z,51
2016-07-16T10:23:26.072Z,49.84
2016-07-16T10:24:26.811Z,50.42
2016-07-16T10:25:26.094Z,50.71
